Vasileios Vrousai

Olheiro - Olympiacos
3 Abr 2027
Sábado
Processo

Personalidade

Adaptabilidade (18) Ambição (7) Controvérsia (5) Lealdade (3) Pressão (10) Profissionalismo (1) Espírito Esportivo (12) Temperamento (13)

Perfil

Estilo de Treinamento Democrático
Licença Continental A
Determinação 13
Gestão de Pessoas 7
Motivação 11
Disciplina 11
Satisfação no Trabalho
100%
Fadiga
0%
Função Olheiro
Salário 35.6K p/s
Contrato 14.03.2029

Desempenho

Comportamento Bom
Eficácia do Treinamento
49%
Desenvolvimento do Jogador
40%
Prevenção de Lesões
35%
Implementação Tática
50%

Eventos Recentes

Participou de uma reunião de recrutamento 7d atrás
Avaliou um jogador 7d atrás
Avaliou um jogador 14d atrás
Participou de uma reunião de recrutamento 14d atrás
Avaliou um jogador 14d atrás
Avaliou um jogador 14d atrás
Avaliou um jogador 14d atrás
Avaliou um jogador 21d atrás

Monitorando agora

120
Jogador Clube Status Habilidade Confiança Observado Última observação Último voto
Radek Vítek Middlesbrough Ativo 142 / 148 40% 3 01.04.2027 -
Franco Israel Torino Ativo 137 / 136 40% 1 01.04.2027 -
Leopold Wahlstedt Rosenborg Ativo 125 / 129 40% 1 01.04.2027 -
Oufa Shobeir ES Setif Ativo 119 / 128 40% 4 23.03.2027 -
Manuel Roffo Cerro Porteno Ativo 137 / 121 40% 2 23.03.2027 -
Sam Tickle Wigan Athletic Ativo 129 / 139 40% 2 23.03.2027 -
Felipe Zenobio Tigre Ativo 127 / 134 40% 2 21.03.2027 -
Justin Hammel Grasshopper Ativo 120 / 126 40% 1 21.03.2027 -
Sławomir Abramowicz Jagiellonia Ativo 125 / 134 40% 1 21.03.2027 -
Jakub Stolarczyk Leicester City Ativo 132 / 140 40% 4 20.03.2027 -
Grégoire Coudert Burnley Ativo 130 / 129 40% 2 20.03.2027 -
Mandla Jali SuperSport United Ativo 112 / 107 40% 1 20.03.2027 -
Svetoslav Vutsov Levski Ativo 127 / 131 40% 3 18.03.2027 -
Josh Keeley Luton Town Ativo 125 / 120 40% 2 18.03.2027 -
Pascal Loretz Luzern Ativo 132 / 131 40% 1 18.03.2027 -
Daniil Khudyakov Sturm Graz Ativo 121 / 130 40% 1 15.03.2027 -
Ştefan Târnovanu FCSB Ativo 120 / 120 40% 1 13.03.2027 -
Ľubomír Belko Viking Ativo 122 / 126 40% 1 13.03.2027 -
Anthony Patterson Wrexham Ativo 134 / 138 40% 1 12.03.2027 -
Mateusz Kochalski Qarabag Ativo 138 / 138 40% 1 11.03.2027 -
Viktor Baier Viktoria Plzen Ativo 118 / 123 40% 1 08.03.2027 -
Mark Travers Everton Ativo 144 / 134 40% 1 08.03.2027 -
Jamie Cumming Oxford United Ativo 128 / 131 40% 1 07.03.2027 -
Fedor Lapoukhov CSKA Sofia Ativo 115 / 117 40% 1 04.03.2027 -
Edoardo Corvi Parma Ativo 128 / 126 40% 2 02.03.2027 -
Ruslan Neshcheret Dynamo Kyiv Ativo 118 / 129 40% 1 20.01.2027 -
Edoardo Motta Lazio Ativo 124 / 121 40% 1 12.01.2027 -
Elías Rafn Ólafsson FC Midtjylland Ativo 133 / 130 40% 1 12.01.2027 -
Haissem Hassan Bloemfontein Celtic Ativo 140 / 134 40% 2 30.12.2026 -
Alex Opoku Sarfo Aris Ativo 115 / 126 40% 3 30.12.2026 -
Mfundo Vilakazi Kaizer Chiefs Ativo 107 / 129 40% 1 30.12.2026 -
Majid Dejagah Gostaresh Foulad Ativo 127 / 121 40% 5 28.12.2026 -
Etiosa Ighodaro Kaizer Chiefs Ativo 113 / 111 40% 2 28.12.2026 -
Luciano Gondou CSKA Moscow Ativo 134 / 135 40% 6 28.12.2026 -
Mathias Kvistgaarden Norwich City Ativo 124 / 123 40% 3 28.12.2026 -
Jovon Makama Norwich City Ativo 122 / 117 40% 1 28.12.2026 -
Pablo Solari Spartak Moscow Ativo 127 / 132 40% 4 26.12.2026 -
Ali Soliman Masr El Makasa Ativo 118 / 129 40% 2 26.12.2026 -
Reda Khadra Qarabag Ativo 138 / 124 40% 4 24.12.2026 -
Afimico Pululu Al-Hazem Ativo 134 / 126 40% 4 24.12.2026 -
Marcelo Allende Mamelodi Sundowns Ativo 124 / 133 40% 1 24.12.2026 -
Petar Stanić Ludogorets Ativo 135 / 130 40% 3 23.12.2026 -
Isaac Price West Bromwich Albion Ativo 131 / 130 40% 2 23.12.2026 -
Cian Ashford Cardiff City Ativo 114 / 124 40% 1 23.12.2026 -
Teboho Tau Ajax Cape Town Ativo 115 / 100 40% 2 22.12.2026 -
Leandro Andrade Polissia Ativo 132 / 135 40% 4 21.12.2026 -
Richard Koné Queens Park Rangers Ativo 118 / 122 40% 1 19.12.2026 -
Everton Bala Levski Ativo 129 / 119 40% 1 19.12.2026 -
Moses Cobnan Krasnodar Ativo 115 / 118 40% 6 17.12.2026 -
Evidence Makgopa Orlando Pirates Ativo 116 / 123 40% 2 17.12.2026 -
Matej Trusa DAC Dunajska Streda Ativo 115 / 111 40% 2 17.12.2026 -
Stav Toriel Hapoel Tel Aviv Ativo 138 / 138 40% 4 15.12.2026 -
Brayan León Mamelodi Sundowns Ativo 120 / 123 40% 2 15.12.2026 -
Relebohile Mofokeng Orlando Pirates Ativo 126 / 125 40% 3 15.12.2026 -
Gift Zwane Platinum Stars Ativo 108 / 104 40% 1 15.12.2026 -
Esequiel Barco Spartak Moscow Ativo 137 / 140 40% 1 15.12.2026 -
Rumarn Burrell Queens Park Rangers Ativo 126 / 114 40% 2 13.12.2026 -
Pejman Mohammadi Gostaresh Foulad Ativo 94 / 103 40% 1 13.12.2026 -
Akinkunmi Amoo Ismaily Ativo 119 / 108 40% 1 12.12.2026 -
Alex Robertson Cardiff City Ativo 118 / 130 40% 1 10.12.2026 -
Marquinhos Spartak Moscow Ativo 131 / 121 40% 4 09.12.2026 -
Oston O'runov Persepolis Ativo 126 / 119 40% 1 09.12.2026 -
Itumeleng Tau Ajax Cape Town Ativo 125 / 103 40% 4 08.12.2026 -
Percy Erasmus SuperSport United Ativo 134 / 129 40% 7 04.12.2026 -
José Paradela Cruz Azul Ativo 141 / 129 40% 2 04.12.2026 -
Dom Ballard Leyton Orient Ativo 116 / 127 40% 1 04.12.2026 -
Brayan Gil Baltika Ativo 127 / 130 40% 1 04.12.2026 -
Robert Petkovic Zadar Ativo 125 / 126 40% 1 02.12.2026 -
Denzel Jubitana Atromitos Ativo 120 / 111 40% 2 01.12.2026 -
Kwadwo Opoku Panetolikos Ativo 117 / 107 40% 1 30.11.2026 -
Mehdi Hashemnejad Tractor Ativo 121 / 105 40% 1 29.11.2026 -
Alexander Díaz Deportivo Riestra Ativo 116 / 107 40% 1 25.11.2026 -
Andronikos Kakoullis Aris Ativo 106 / 122 40% 1 22.11.2026 -
Mehdi Ghayedi Al Nasr Ativo 135 / 125 40% 1 22.11.2026 -
Christos Giousis Nea Salamis Ativo 100 / 102 40% 1 21.11.2026 -
Martín Ojeda Orlando City Ativo 135 / 122 40% 1 18.11.2026 -
Nicolás Cordero Aldosivi Ativo 123 / 128 40% 1 17.11.2026 -
Rody Junior Effaghe Aris Ativo 97 / 111 40% 1 17.11.2026 -
José Barreto Fehervar Ativo 116 / 120 40% 1 17.11.2026 -
Liel Abada Charlotte Football Club Ativo 138 / 136 40% 2 16.11.2026 -
Ignacio Russo Tigre Ativo 127 / 116 40% 1 16.11.2026 -
Talles Magno New York City Ativo 134 / 126 40% 2 13.11.2026 -
Assad Al Hamlawi Universitatea Craiova Ativo 118 / 125 40% 1 13.11.2026 -
Tadeo Allende Inter Miami CF Ativo 124 / 118 40% 6 11.11.2026 -
Kauã Elias Shakhtar Ativo 130 / 130 40% 1 11.11.2026 -
Dejan Joveljić Seattle Sounders Ativo 134 / 113 40% 1 11.11.2026 -
Thapelo Maseko FC Copenhagen Ativo 120 / 128 40% 1 10.11.2026 -
Nicolás Andereggen Ethnikos Achnas Ativo 104 / 98 40% 1 10.11.2026 -
Erik Botheim Malmo FF Ativo 131 / 111 40% 2 09.11.2026 -
Jesus Ferreira Seattle Sounders Ativo 128 / 123 40% 2 07.11.2026 -
Ashkan Shojaei Siah Jamegan Ativo 131 / 120 40% 1 07.11.2026 -
Helinho Toluca Ativo 127 / 142 40% 1 07.11.2026 -
Allahyar Sayyadmanesh Lech Ativo 128 / 120 40% 1 04.11.2026 -
Manfred Ugalde Spartak Moscow Ativo 130 / 131 40% 1 04.11.2026 -
Alejo Dramisino Honved Ativo 115 / 114 40% 2 29.10.2026 -
Kaveh Mohammadi Padideh Ativo 133 / 140 40% 1 29.10.2026 -
Cheikh Sabaly Vancouver Whitecaps Ativo 121 / 127 40% 1 29.10.2026 -
Nazar Voloshyn Dynamo Kyiv Ativo 130 / 136 40% 1 17.10.2026 -
Kelvin Yeboah Minnesota United FC Ativo 131 / 121 40% 2 16.10.2026 -
Aljoša Matko Ujpest Ativo 120 / 115 40% 1 15.10.2026 -
Djordje Mihailović Toronto FC Ativo 130 / 124 40% 1 14.10.2026 -
David Da Costa Portland Timbers Ativo 129 / 140 40% 1 14.10.2026 -
Dimitar Mitrovski Olimpija Ljubljana Ativo 111 / 109 40% 1 13.10.2026 -
Jens Petter Hauge Bodo/Glimt Ativo 134 / 143 40% 1 11.10.2026 -
Kein Sato FC Tokyo Ativo 136 / 141 40% 1 03.10.2026 -
Lucas Sanabria LA Galaxy Ativo 129 / 121 40% 2 24.09.2026 -
Iván Angulo Orlando City Ativo 126 / 119 40% 1 24.09.2026 -
Duncan McGuire Houston Dynamo Ativo 117 / 137 40% 1 24.09.2026 -
Ramiro Ruiz Rodríguez Atlético Tucumán Ativo 117 / 115 40% 1 22.09.2026 -
Joaquín Valiente FC Dallas Ativo 114 / 128 40% 1 15.09.2026 -
Amin Boudri Los Angeles Football Club Ativo 127 / 132 40% 1 15.09.2026 -
Lasse Berg Johnsen Sporting Kansas City Ativo 120 / 121 40% 1 12.09.2026 -
Oswin Appollis Orlando Pirates Ativo 112 / 120 40% 1 11.09.2026 -
Alhassan Yusuf New England Revolution Ativo 120 / 132 40% 1 11.09.2026 -
Mateo Silvetti Inter Miami CF Ativo 116 / 137 40% 1 11.09.2026 -
Juan Manuel Sanabria Real Salt Lake Ativo 124 / 126 40% 1 01.09.2026 -
Marco Pašalić Orlando City Ativo 135 / 136 40% 1 31.08.2026 -
Luka Jović AEK Perdido 135 / 133 79% 1 17.08.2026 Aprovar
Orbelín Pineda Monterrey Ativo 145 / 149 40% 1 02.08.2026 -
Saša Lukić Ipswich Town Ativo 140 / 134 40% 1 02.08.2026 -